createdAt,value
2022-08-04T00:02:04.429Z,23.94
2022-08-04T00:07:17.849Z,23.89
2022-08-04T00:12:31.477Z,23.84
2022-08-04T00:17:40.783Z,23.78
2022-08-04T00:22:50.154Z,23.72
2022-08-04T00:27:53.265Z,23.66
2022-08-04T00:32:58.270Z,23.59
2022-08-04T00:38:06.764Z,23.53
2022-08-04T00:43:17.949Z,23.50
2022-08-04T00:48:33.046Z,23.45
2022-08-04T00:53:56.139Z,23.38
2022-08-04T00:59:05.229Z,23.33
2022-08-04T01:04:22.022Z,23.26
2022-08-04T01:09:45.161Z,23.17
2022-08-04T01:15:15.359Z,23.13
2022-08-04T01:26:15.285Z,23.05
2022-08-04T01:31:36.326Z,22.93
2022-08-04T01:36:50.104Z,22.85
2022-08-04T01:41:58.404Z,22.78
2022-08-04T01:52:28.884Z,22.75
2022-08-04T01:57:38.153Z,22.66
2022-08-04T02:08:18.922Z,22.59
2022-08-04T02:13:28.139Z,22.49
2022-08-04T02:18:34.225Z,22.38
2022-08-04T02:23:42.700Z,22.30
2022-08-04T02:28:49.593Z,22.24
2022-08-04T02:34:02.784Z,22.19
2022-08-04T02:39:12.443Z,22.14
2022-08-04T02:44:19.300Z,22.07
2022-08-04T02:49:23.876Z,22.00
2022-08-04T02:54:39.753Z,21.94
2022-08-04T02:59:55.011Z,21.93
2022-08-04T03:05:01.739Z,21.87
2022-08-04T03:10:43.543Z,21.82
2022-08-04T03:16:04.379Z,21.79
2022-08-04T03:21:37.360Z,21.72
2022-08-04T03:27:07.168Z,21.68
2022-08-04T03:32:51.033Z,21.62
2022-08-04T03:38:18.219Z,21.60
2022-08-04T03:44:00.470Z,21.56
2022-08-04T03:49:37.131Z,21.52
2022-08-04T03:54:59.713Z,21.48
2022-08-04T04:06:00.165Z,21.54
2022-08-04T04:11:31.258Z,21.54
2022-08-04T04:16:56.806Z,21.53
2022-08-04T04:22:19.071Z,21.55
2022-08-04T04:27:34.863Z,21.59
2022-08-04T04:33:00.729Z,21.67
2022-08-04T04:38:46.015Z,21.75
2022-08-04T04:44:05.697Z,21.87
2022-08-04T04:49:18.533Z,21.96
2022-08-04T04:54:35.634Z,22.07
2022-08-04T04:59:45.364Z,22.24
2022-08-04T05:05:16.567Z,22.39
2022-08-04T05:10:40.754Z,22.59
2022-08-04T05:21:15.389Z,23.04
2022-08-04T05:26:24.604Z,23.17
2022-08-04T05:31:30.372Z,23.35
2022-08-04T05:36:42.120Z,23.52
2022-08-04T05:41:48.079Z,23.76
2022-08-04T05:47:00.612Z,23.97
2022-08-04T05:52:10.857Z,24.23
2022-08-04T05:57:14.720Z,24.51
2022-08-04T06:02:20.609Z,24.79
2022-08-04T06:07:28.959Z,25.09
2022-08-04T06:12:37.961Z,25.42
2022-08-04T06:18:32.976Z,25.73
2022-08-04T06:23:16.915Z,26.05
2022-08-04T06:28:21.026Z,26.42
2022-08-04T06:33:24.595Z,26.73
2022-08-04T06:38:34.544Z,27.09
2022-08-04T06:43:43.062Z,27.44
2022-08-04T06:48:47.766Z,27.76
2022-08-04T06:53:56.196Z,28.12
2022-08-04T06:59:02.144Z,28.48
2022-08-04T07:04:06.289Z,28.83
2022-08-04T07:09:14.456Z,29.17
2022-08-04T07:14:18.682Z,29.52
2022-08-04T07:19:21.388Z,29.87
2022-08-04T07:29:42.882Z,30.64
2022-08-04T07:34:49.791Z,30.97
2022-08-04T07:39:53.025Z,31.36
2022-08-04T07:45:01.646Z,31.70
2022-08-04T07:55:24.050Z,32.48
2022-08-04T08:00:26.861Z,32.71
2022-08-04T08:05:30.068Z,33.00
2022-08-04T08:10:38.992Z,33.36
2022-08-04T08:15:42.634Z,33.71
2022-08-04T08:20:46.513Z,34.08
2022-08-04T08:25:55.421Z,34.42
2022-08-04T08:30:59.439Z,34.75
2022-08-04T08:41:52.145Z,35.50
2022-08-04T08:47:08.587Z,35.77
2022-08-04T08:52:57.288Z,36.11
2022-08-04T08:58:08.360Z,36.46
2022-08-04T09:03:39.561Z,36.86
2022-08-04T09:09:15.910Z,37.25
2022-08-04T09:14:32.833Z,37.60
2022-08-04T09:19:43.467Z,37.98
2022-08-04T09:24:55.166Z,38.15
2022-08-04T09:30:08.393Z,38.32
2022-08-04T09:35:34.743Z,38.60
2022-08-04T09:40:53.159Z,38.79
2022-08-04T09:51:56.878Z,38.70
2022-08-04T09:57:11.944Z,38.51
2022-08-04T10:02:20.154Z,38.42
2022-08-04T10:07:59.731Z,38.41
2022-08-04T10:13:26.935Z,38.41
2022-08-04T10:18:45.082Z,38.53
2022-08-04T10:24:06.580Z,38.84
2022-08-04T10:29:15.488Z,39.20
2022-08-04T10:34:22.549Z,39.51
2022-08-04T10:39:43.993Z,39.82
2022-08-04T10:44:57.823Z,40.18
2022-08-04T10:50:03.828Z,40.50
2022-08-04T10:55:18.270Z,40.68
2022-08-04T11:00:25.606Z,40.69
2022-08-04T11:05:43.817Z,40.84
2022-08-04T11:10:58.543Z,40.97
2022-08-04T11:16:05.072Z,41.20
2022-08-04T11:21:13.939Z,41.46
2022-08-04T11:26:30.745Z,41.68
2022-08-04T11:31:36.872Z,41.88
2022-08-04T11:36:47.458Z,41.96
2022-08-04T11:41:59.353Z,42.00
2022-08-04T11:47:05.925Z,42.13
2022-08-04T11:52:11.676Z,42.30
2022-08-04T11:57:20.187Z,42.57
2022-08-04T12:02:42.941Z,42.82
2022-08-04T12:07:56.493Z,43.01
2022-08-04T12:13:14.684Z,43.12
2022-08-04T12:18:24.639Z,43.22
2022-08-04T12:23:34.438Z,43.34
2022-08-04T12:29:08.962Z,43.40
2022-08-04T12:34:14.016Z,43.49
2022-08-04T12:50:03.091Z,43.88
2022-08-04T13:05:55.789Z,43.90
2022-08-04T13:10:59.747Z,43.75
2022-08-04T13:16:05.271Z,43.74
2022-08-04T13:21:22.888Z,43.64
2022-08-04T13:26:56.490Z,43.63
2022-08-04T13:32:00.935Z,43.68
2022-08-04T13:37:10.756Z,43.67
2022-08-04T13:42:26.305Z,43.49
2022-08-04T13:47:32.555Z,43.26
2022-08-04T13:52:41.680Z,42.84
2022-08-04T13:57:47.008Z,42.47
2022-08-04T14:02:53.492Z,42.22
2022-08-04T14:08:08.546Z,42.23
2022-08-04T14:13:11.536Z,42.35
2022-08-04T14:18:21.933Z,42.46
2022-08-04T14:23:31.757Z,42.57
2022-08-04T14:29:09.843Z,42.59
2022-08-04T14:34:04.126Z,42.52
2022-08-04T14:39:13.523Z,42.34
2022-08-04T14:44:17.066Z,42.17
2022-08-04T14:49:20.138Z,42.15
2022-08-04T14:54:34.810Z,42.14
2022-08-04T14:59:58.867Z,42.15
2022-08-04T15:15:43.499Z,42.44
2022-08-04T15:26:37.814Z,42.28
2022-08-04T15:32:06.494Z,42.18
2022-08-04T15:37:08.089Z,42.10
2022-08-04T15:42:25.195Z,41.98
2022-08-04T15:47:28.177Z,41.98
2022-08-04T15:52:31.950Z,41.93
2022-08-04T15:58:06.050Z,41.89
2022-08-04T16:04:00.278Z,41.88
2022-08-04T16:09:05.904Z,41.90
2022-08-04T16:14:09.723Z,41.78
2022-08-04T16:19:34.964Z,41.70
2022-08-04T16:24:39.255Z,41.57
2022-08-04T16:29:42.988Z,41.42
2022-08-04T16:34:56.272Z,41.27
2022-08-04T16:40:29.818Z,41.21
2022-08-04T16:45:45.010Z,41.16
2022-08-04T16:50:56.107Z,41.07
2022-08-04T16:55:58.857Z,40.95
2022-08-04T17:01:08.791Z,40.73
2022-08-04T17:06:18.444Z,40.31
2022-08-04T17:16:42.657Z,39.36
2022-08-04T17:21:45.741Z,38.88
2022-08-04T17:26:54.045Z,38.51
2022-08-04T17:32:03.101Z,38.15
2022-08-04T17:42:30.352Z,37.29
2022-08-04T17:47:50.065Z,36.89
2022-08-04T17:53:01.225Z,36.56
2022-08-04T17:58:20.614Z,36.23
2022-08-04T18:03:30.329Z,35.83
2022-08-04T18:08:39.958Z,35.40
2022-08-04T18:13:44.590Z,35.00
2022-08-04T18:19:09.169Z,34.68
2022-08-04T18:24:11.954Z,34.36
2022-08-04T18:29:31.293Z,34.14
2022-08-04T18:34:40.874Z,34.00
2022-08-04T18:40:10.204Z,33.89
2022-08-04T18:45:20.711Z,33.78
2022-08-04T18:50:59.138Z,33.64
2022-08-04T18:55:56.489Z,33.50
2022-08-04T19:01:01.288Z,33.35
2022-08-04T19:06:09.802Z,33.24
2022-08-04T19:11:37.355Z,33.14
2022-08-04T19:16:35.739Z,32.95
2022-08-04T19:21:59.321Z,32.68
2022-08-04T19:27:07.073Z,32.33
2022-08-04T19:32:14.525Z,32.02
2022-08-04T19:42:46.803Z,31.31
2022-08-04T19:48:21.981Z,30.86
2022-08-04T19:53:37.306Z,30.42
2022-08-04T19:58:40.951Z,29.94
2022-08-04T20:04:09.835Z,29.54
2022-08-04T20:09:26.313Z,29.26
2022-08-04T20:14:32.639Z,29.04
2022-08-04T20:19:36.285Z,28.85
2022-08-04T20:24:52.044Z,28.70
2022-08-04T20:30:14.004Z,28.57
2022-08-04T20:35:21.776Z,28.44
2022-08-04T20:45:56.355Z,28.29
2022-08-04T20:51:01.756Z,28.15
2022-08-04T20:56:04.696Z,28.03
2022-08-04T21:01:14.825Z,27.90
2022-08-04T21:06:19.112Z,27.81
2022-08-04T21:11:23.588Z,27.67
2022-08-04T21:16:55.503Z,27.53
2022-08-04T21:21:55.512Z,27.45
2022-08-04T21:26:58.397Z,27.36
2022-08-04T21:32:08.261Z,27.29
2022-08-04T21:37:58.126Z,27.26
2022-08-04T21:42:53.621Z,27.07
2022-08-04T21:47:56.578Z,26.94
2022-08-04T21:58:26.834Z,26.85
2022-08-04T22:03:53.000Z,26.73
2022-08-04T22:08:57.639Z,26.62
2022-08-04T22:14:11.189Z,26.51
2022-08-04T22:19:14.529Z,26.46
2022-08-04T22:24:26.798Z,26.39
2022-08-04T22:29:39.356Z,26.16
2022-08-04T22:34:53.256Z,25.95
2022-08-04T22:39:57.216Z,25.82
2022-08-04T22:45:07.920Z,25.72
2022-08-04T22:50:27.462Z,25.62
2022-08-04T22:56:07.162Z,25.51
2022-08-04T23:00:58.981Z,25.40
2022-08-04T23:06:04.481Z,25.34
2022-08-04T23:11:09.214Z,25.26
2022-08-04T23:16:17.841Z,25.22
2022-08-04T23:21:24.036Z,25.18
2022-08-04T23:26:28.295Z,25.16
2022-08-04T23:31:40.399Z,25.14
2022-08-04T23:36:44.390Z,25.14
2022-08-04T23:41:51.404Z,25.10
2022-08-04T23:47:05.591Z,25.03
2022-08-04T23:52:09.812Z,24.94
2022-08-04T23:58:02.176Z,24.86
